createdAt,value
2023-01-27T00:01:06.092Z,78.12
2023-01-27T00:03:34.185Z,78.22
2023-01-27T00:06:02.171Z,78.43
2023-01-27T00:08:30.217Z,78.60
2023-01-27T00:11:20.854Z,78.68
2023-01-27T00:13:48.714Z,78.29
2023-01-27T00:16:17.273Z,78.51
2023-01-27T00:18:45.722Z,78.36
2023-01-27T00:21:32.284Z,78.36
2023-01-27T00:24:18.733Z,78.77
2023-01-27T00:26:46.648Z,78.31
2023-01-27T00:29:14.494Z,78.54
2023-01-27T00:32:00.810Z,78.51
2023-01-27T00:34:28.639Z,78.58
2023-01-27T00:36:56.463Z,78.65
2023-01-27T00:39:24.287Z,78.64
2023-01-27T00:41:52.130Z,78.67
2023-01-27T00:44:19.943Z,78.70
2023-01-27T00:46:47.813Z,78.76
2023-01-27T00:49:15.939Z,78.72
2023-01-27T00:51:44.254Z,78.86
2023-01-27T00:54:12.197Z,78.67
2023-01-27T00:56:40.506Z,78.90
2023-01-27T00:59:08.446Z,79.14
2023-01-27T01:01:36.473Z,78.99
2023-01-27T01:04:04.724Z,79.06
2023-01-27T01:06:32.766Z,79.17
2023-01-27T01:09:00.699Z,78.97
2023-01-27T01:11:28.840Z,79.04
2023-01-27T01:13:57.299Z,79.13
2023-01-27T01:16:26.063Z,79.04
2023-01-27T01:18:54.156Z,78.99
2023-01-27T01:21:22.646Z,79.03
2023-01-27T01:23:50.851Z,79.09
2023-01-27T01:26:19.089Z,79.20
2023-01-27T01:28:47.705Z,79.06
2023-01-27T01:31:19.216Z,79.09
2023-01-27T01:33:48.347Z,79.18
2023-01-27T01:36:18.722Z,79.22
2023-01-27T01:38:47.483Z,79.13
2023-01-27T01:41:20.519Z,79.12
2023-01-27T01:43:50.388Z,79.04
2023-01-27T01:46:19.482Z,79.16
2023-01-27T01:48:55.191Z,78.93
2023-01-27T01:51:29.920Z,79.05
2023-01-27T01:54:07.538Z,79.01
2023-01-27T01:57:03.059Z,79.24
2023-01-27T01:59:39.893Z,79.33
2023-01-27T02:02:10.466Z,78.95
2023-01-27T02:04:45.558Z,79.32
2023-01-27T02:07:22.501Z,79.13
2023-01-27T02:09:56.248Z,79.37
2023-01-27T02:12:24.120Z,79.38
2023-01-27T02:14:52.385Z,79.13
2023-01-27T02:17:22.950Z,79.17
2023-01-27T02:20:14.450Z,79.42
2023-01-27T02:22:59.108Z,79.62
2023-01-27T02:25:35.474Z,79.39
2023-01-27T02:28:05.411Z,79.34
2023-01-27T02:30:34.263Z,79.54
2023-01-27T02:33:02.538Z,79.46
2023-01-27T02:35:37.041Z,79.46
2023-01-27T02:38:07.300Z,79.67
2023-01-27T02:40:37.489Z,79.48
2023-01-27T02:43:05.522Z,79.23
2023-01-27T02:45:33.357Z,79.64
2023-01-27T02:48:01.280Z,79.40
2023-01-27T02:50:30.031Z,79.80
2023-01-27T02:52:57.867Z,79.66
2023-01-27T02:55:25.814Z,79.63
2023-01-27T02:57:53.701Z,79.65
2023-01-27T03:00:40.053Z,79.80
2023-01-27T03:03:07.912Z,79.73
2023-01-27T03:05:35.939Z,79.62
2023-01-27T03:08:03.940Z,80.03
2023-01-27T03:10:32.379Z,79.93
2023-01-27T03:13:00.206Z,79.87
2023-01-27T03:15:46.967Z,79.73
2023-01-27T03:18:16.773Z,79.97
2023-01-27T03:20:49.383Z,79.92
2023-01-27T03:23:19.460Z,79.80
2023-01-27T03:25:50.467Z,79.96
2023-01-27T03:28:18.290Z,79.64
2023-01-27T03:31:09.017Z,80.20
2023-01-27T03:33:44.359Z,80.07
2023-01-27T03:36:53.271Z,80.17
2023-01-27T03:39:40.110Z,80.26
2023-01-27T03:42:26.726Z,80.25
2023-01-27T03:45:14.795Z,80.05
2023-01-27T03:47:42.801Z,80.08
2023-01-27T03:50:13.928Z,80.35
2023-01-27T03:52:41.767Z,80.39
2023-01-27T03:55:10.239Z,80.38
2023-01-27T03:57:38.451Z,80.23
2023-01-27T04:00:07.097Z,80.50
2023-01-27T04:02:59.791Z,80.69
2023-01-27T04:05:47.018Z,80.43
2023-01-27T04:08:14.851Z,80.37
2023-01-27T04:11:02.609Z,80.41
2023-01-27T04:13:30.437Z,80.50
2023-01-27T04:15:58.735Z,80.55
2023-01-27T04:18:26.602Z,80.65
2023-01-27T04:20:54.551Z,80.74
2023-01-27T04:23:22.356Z,80.85
2023-01-27T04:25:53.678Z,80.73
2023-01-27T04:28:37.256Z,80.50
2023-01-27T04:31:09.664Z,80.43
2023-01-27T04:33:37.623Z,80.58
2023-01-27T04:36:05.710Z,80.73
2023-01-27T04:38:33.880Z,80.64
2023-01-27T04:41:01.748Z,80.60
2023-01-27T04:43:29.631Z,80.69
2023-01-27T04:45:57.755Z,80.39
2023-01-27T04:48:25.682Z,80.58
2023-01-27T04:50:53.766Z,80.76
2023-01-27T04:53:21.851Z,80.81
2023-01-27T04:55:50.392Z,80.63
2023-01-27T04:58:18.456Z,80.74
2023-01-27T05:00:46.358Z,80.58
2023-01-27T05:03:14.357Z,80.87
2023-01-27T05:05:42.425Z,80.80
2023-01-27T05:08:10.979Z,80.89
2023-01-27T05:10:38.799Z,81.01
2023-01-27T05:13:06.623Z,81.19
2023-01-27T05:15:34.521Z,81.50
2023-01-27T05:18:02.408Z,81.76
2023-01-27T05:20:31.822Z,81.67
2023-01-27T05:23:18.538Z,81.62
2023-01-27T05:25:46.578Z,81.44
2023-01-27T05:28:14.519Z,81.37
2023-01-27T05:30:42.444Z,81.44
2023-01-27T05:33:11.214Z,81.61
2023-01-27T05:35:39.224Z,81.61
2023-01-27T05:38:07.350Z,81.62
2023-01-27T05:40:35.282Z,81.85
2023-01-27T05:43:03.700Z,81.99
2023-01-27T05:45:31.555Z,81.96
2023-01-27T05:47:59.522Z,82.04
2023-01-27T05:50:27.546Z,82.02
2023-01-27T05:52:55.346Z,82.03
2023-01-27T05:55:23.211Z,81.86
2023-01-27T05:57:51.492Z,82.09
2023-01-27T06:00:20.001Z,82.12
2023-01-27T06:02:48.063Z,82.21
2023-01-27T06:05:16.255Z,82.48
2023-01-27T06:07:44.038Z,82.51
2023-01-27T06:10:12.683Z,82.78
2023-01-27T06:12:40.857Z,82.91
2023-01-27T06:15:09.751Z,82.67
2023-01-27T06:17:37.610Z,82.76
2023-01-27T06:20:06.073Z,82.77
2023-01-27T06:22:33.893Z,83.07
2023-01-27T06:25:01.684Z,83.04
2023-01-27T06:27:29.494Z,83.07
2023-01-27T06:29:57.230Z,82.96
2023-01-27T06:32:25.009Z,83.22
2023-01-27T06:34:52.918Z,83.32
2023-01-27T06:37:20.932Z,83.34
2023-01-27T06:39:48.718Z,83.43
2023-01-27T06:42:16.596Z,83.50
2023-01-27T06:44:44.552Z,83.49
2023-01-27T06:47:12.451Z,83.39
2023-01-27T06:49:40.546Z,83.49
2023-01-27T06:52:08.457Z,83.52
2023-01-27T06:54:36.274Z,83.60
2023-01-27T06:57:04.196Z,83.67
2023-01-27T06:59:32.026Z,83.76
2023-01-27T07:01:59.852Z,83.94
2023-01-27T07:04:27.647Z,84.08
2023-01-27T07:06:55.582Z,84.20
2023-01-27T07:09:23.421Z,84.31
2023-01-27T07:11:52.075Z,84.41
2023-01-27T07:14:19.895Z,84.50
2023-01-27T07:16:48.040Z,84.45
2023-01-27T07:19:16.987Z,84.65
2023-01-27T07:21:44.803Z,84.68
2023-01-27T07:24:12.768Z,84.60
2023-01-27T07:26:40.968Z,84.70
2023-01-27T07:29:08.807Z,84.44
2023-01-27T07:31:36.742Z,84.68
2023-01-27T07:34:04.708Z,84.71
2023-01-27T07:36:32.606Z,84.63
2023-01-27T07:39:00.495Z,84.82
2023-01-27T07:41:28.273Z,84.73
2023-01-27T07:43:56.085Z,84.97
2023-01-27T07:46:27.272Z,85.05
2023-01-27T07:48:55.099Z,85.12
2023-01-27T07:51:22.985Z,85.26
2023-01-27T07:53:52.361Z,85.30
2023-01-27T07:56:20.252Z,85.32
2023-01-27T07:58:48.289Z,85.22
2023-01-27T08:01:16.157Z,85.29
2023-01-27T08:03:44.383Z,85.51
2023-01-27T08:06:13.262Z,85.68
2023-01-27T08:08:41.862Z,85.77
2023-01-27T08:11:13.489Z,85.76
2023-01-27T08:13:42.384Z,85.66
2023-01-27T08:16:15.233Z,85.82
2023-01-27T08:18:43.326Z,85.78
2023-01-27T08:21:13.043Z,85.77
2023-01-27T08:23:41.129Z,85.96
2023-01-27T08:26:09.258Z,86.02
2023-01-27T08:28:38.944Z,85.97
2023-01-27T08:31:14.606Z,86.10
2023-01-27T08:33:44.740Z,86.25
2023-01-27T08:36:15.487Z,86.28
2023-01-27T08:38:45.038Z,86.15
2023-01-27T08:41:15.531Z,86.34
2023-01-27T08:43:44.016Z,86.22
2023-01-27T08:46:12.510Z,86.27
2023-01-27T08:48:41.278Z,86.34
2023-01-27T08:51:12.676Z,86.51
2023-01-27T08:53:41.039Z,86.52
2023-01-27T08:56:12.635Z,86.85
2023-01-27T08:58:40.682Z,87.26
2023-01-27T09:01:09.568Z,87.36
2023-01-27T09:03:37.654Z,87.08
2023-01-27T09:06:07.873Z,86.94
2023-01-27T09:08:36.386Z,86.92
2023-01-27T09:11:14.915Z,86.68
2023-01-27T09:13:43.466Z,86.33
2023-01-27T09:16:11.410Z,85.70
2023-01-27T09:18:39.435Z,84.85
2023-01-27T09:21:07.623Z,84.75
2023-01-27T09:23:35.658Z,84.34
2023-01-27T09:26:03.485Z,83.79
2023-01-27T09:28:31.338Z,83.14
2023-01-27T09:31:00.256Z,82.75
2023-01-27T09:33:28.399Z,82.26
2023-01-27T09:36:03.746Z,81.92
2023-01-27T09:38:34.857Z,81.20
2023-01-27T09:41:40.462Z,80.59
2023-01-27T09:44:34.301Z,80.23
2023-01-27T09:47:24.221Z,79.36
2023-01-27T09:50:20.390Z,79.02
2023-01-27T09:53:04.890Z,78.48
2023-01-27T09:55:51.041Z,78.41
2023-01-27T09:58:25.035Z,77.60
2023-01-27T10:01:04.672Z,77.88
2023-01-27T10:03:39.264Z,77.41
2023-01-27T10:06:20.005Z,77.11
2023-01-27T10:09:09.680Z,76.91
2023-01-27T10:11:55.039Z,76.60
2023-01-27T10:14:30.899Z,76.71
2023-01-27T10:17:41.085Z,76.16
2023-01-27T10:20:17.133Z,76.18
2023-01-27T10:23:07.206Z,75.65
2023-01-27T10:26:08.550Z,75.08
2023-01-27T10:28:38.067Z,74.67
2023-01-27T10:31:14.956Z,74.76
2023-01-27T10:34:01.881Z,74.18
2023-01-27T10:36:47.060Z,73.94
2023-01-27T10:39:44.312Z,73.45
2023-01-27T10:42:30.891Z,73.68
2023-01-27T10:45:10.856Z,73.20
2023-01-27T10:47:50.684Z,72.55
2023-01-27T10:50:27.330Z,71.96
2023-01-27T10:53:07.516Z,71.67
2023-01-27T10:55:46.966Z,71.79
2023-01-27T10:58:39.930Z,71.34
2023-01-27T11:01:21.264Z,71.05
2023-01-27T11:04:02.477Z,71.10
2023-01-27T11:06:42.444Z,70.92
2023-01-27T11:09:28.666Z,70.82
2023-01-27T11:12:00.827Z,70.68
2023-01-27T11:14:48.447Z,70.61
2023-01-27T11:17:29.210Z,70.50
2023-01-27T11:20:20.670Z,70.40
2023-01-27T11:23:00.205Z,70.29
2023-01-27T11:25:34.076Z,69.89
2023-01-27T11:28:25.956Z,70.26
2023-01-27T11:31:16.953Z,69.55
2023-01-27T11:34:16.267Z,69.58
2023-01-27T11:36:44.096Z,69.55
2023-01-27T11:39:14.566Z,69.36
2023-01-27T11:41:52.047Z,69.29
2023-01-27T11:44:29.485Z,69.07
2023-01-27T11:46:57.898Z,68.89
2023-01-27T11:49:37.348Z,69.06
2023-01-27T11:52:18.032Z,69.06
2023-01-27T11:55:05.337Z,69.14
2023-01-27T11:57:35.456Z,68.90
2023-01-27T12:00:25.973Z,68.69
2023-01-27T12:03:03.580Z,68.56
2023-01-27T12:05:35.028Z,68.41
2023-01-27T12:08:05.504Z,68.45
2023-01-27T12:10:44.568Z,68.64
2023-01-27T12:13:27.089Z,68.54
2023-01-27T12:16:00.478Z,68.65
2023-01-27T12:18:34.055Z,68.69
2023-01-27T12:21:06.752Z,68.31
2023-01-27T12:23:39.207Z,68.17
2023-01-27T12:26:09.959Z,68.21
2023-01-27T12:28:43.102Z,68.88
2023-01-27T12:31:51.831Z,68.85
2023-01-27T12:34:37.418Z,68.43
2023-01-27T12:37:07.998Z,68.68
2023-01-27T12:39:45.579Z,68.93
2023-01-27T12:42:39.211Z,68.56
2023-01-27T12:45:29.976Z,68.19
2023-01-27T12:48:10.312Z,68.41
2023-01-27T12:50:53.000Z,67.90
2023-01-27T12:53:27.932Z,68.35
2023-01-27T12:56:12.277Z,68.84
2023-01-27T12:58:56.631Z,68.49
2023-01-27T13:01:34.070Z,68.65
2023-01-27T13:04:21.981Z,68.58
2023-01-27T13:07:01.709Z,68.35
2023-01-27T13:10:03.331Z,68.43
2023-01-27T13:12:47.739Z,68.32
2023-01-27T13:15:19.289Z,68.72
2023-01-27T13:17:49.680Z,68.57
2023-01-27T13:20:20.743Z,68.86
2023-01-27T13:22:53.347Z,68.73
2023-01-27T13:25:26.740Z,68.54
2023-01-27T13:27:59.304Z,68.56
2023-01-27T13:30:37.118Z,68.62
2023-01-27T13:33:37.689Z,68.61
2023-01-27T13:36:21.108Z,68.74
2023-01-27T13:39:14.951Z,69.14
2023-01-27T13:42:06.945Z,68.86
2023-01-27T13:44:47.055Z,68.54
2023-01-27T13:47:21.983Z,68.53
2023-01-27T13:50:08.393Z,68.76
2023-01-27T13:52:38.289Z,68.93
2023-01-27T13:55:11.618Z,69.30
2023-01-27T13:58:05.760Z,69.54
2023-01-27T14:01:08.737Z,69.75
2023-01-27T14:04:09.276Z,70.02
2023-01-27T14:07:16.544Z,70.14
2023-01-27T14:10:10.621Z,70.29
2023-01-27T14:13:13.755Z,70.66
2023-01-27T14:15:49.800Z,70.79
2023-01-27T14:18:26.520Z,70.92
2023-01-27T14:21:09.403Z,71.14
2023-01-27T14:24:01.022Z,71.08
2023-01-27T14:26:50.259Z,71.34
2023-01-27T14:29:43.355Z,71.57
2023-01-27T14:32:26.394Z,71.49
2023-01-27T14:35:21.094Z,72.08
2023-01-27T14:38:17.193Z,71.91
2023-01-27T14:41:18.741Z,72.09
2023-01-27T14:43:49.198Z,72.37
2023-01-27T14:46:48.400Z,72.46
2023-01-27T14:49:44.349Z,72.66
2023-01-27T14:52:15.139Z,72.85
2023-01-27T14:55:11.233Z,72.94
2023-01-27T14:57:55.905Z,73.14
2023-01-27T15:00:39.181Z,73.38
2023-01-27T15:03:40.387Z,73.67
2023-01-27T15:06:29.766Z,73.54
2023-01-27T15:09:39.176Z,74.08
2023-01-27T15:12:36.774Z,74.16
2023-01-27T15:15:28.182Z,74.34
2023-01-27T15:18:36.747Z,74.53
2023-01-27T15:21:38.256Z,74.70
2023-01-27T15:24:06.026Z,75.00
2023-01-27T15:26:36.469Z,75.32
2023-01-27T15:29:05.131Z,75.45
2023-01-27T15:31:33.605Z,75.59
2023-01-27T15:34:04.374Z,75.58
2023-01-27T15:36:34.063Z,75.98
2023-01-27T15:39:10.939Z,75.96
2023-01-27T15:42:01.750Z,75.96
2023-01-27T15:44:38.413Z,76.21
2023-01-27T15:47:35.247Z,76.49
2023-01-27T15:50:05.784Z,76.24
2023-01-27T15:52:42.800Z,76.57
2023-01-27T15:55:32.497Z,76.60
2023-01-27T15:58:09.194Z,76.84
2023-01-27T16:00:42.500Z,76.64
2023-01-27T16:03:33.523Z,76.67
2023-01-27T16:06:09.807Z,76.95
2023-01-27T16:08:43.482Z,77.35
2023-01-27T16:11:34.448Z,77.26
2023-01-27T16:14:11.615Z,77.35
2023-01-27T16:16:51.775Z,77.31
2023-01-27T16:19:27.641Z,77.56
2023-01-27T16:22:02.953Z,77.29
2023-01-27T16:24:46.279Z,77.62
2023-01-27T16:27:14.057Z,77.90
2023-01-27T16:29:48.321Z,77.79
2023-01-27T16:32:19.331Z,78.08
2023-01-27T16:35:18.506Z,77.77
2023-01-27T16:38:15.805Z,78.64
2023-01-27T16:40:51.299Z,78.41
2023-01-27T16:43:30.008Z,78.40
2023-01-27T16:46:02.608Z,78.63
2023-01-27T16:48:46.740Z,78.39
2023-01-27T16:51:18.711Z,78.67
2023-01-27T16:53:51.969Z,78.56
2023-01-27T16:56:21.454Z,78.70
2023-01-27T16:58:51.200Z,78.65
2023-01-27T17:01:47.922Z,78.69
2023-01-27T17:04:27.601Z,78.88
2023-01-27T17:07:09.349Z,78.72
2023-01-27T17:09:52.335Z,78.64
2023-01-27T17:12:31.039Z,79.12
2023-01-27T17:15:01.130Z,78.64
2023-01-27T17:17:34.383Z,78.71
2023-01-27T17:20:05.223Z,78.92
2023-01-27T17:22:44.008Z,78.89
2023-01-27T17:25:21.333Z,78.99
2023-01-27T17:27:49.648Z,79.00
2023-01-27T17:30:25.071Z,79.19
2023-01-27T17:33:01.875Z,78.94
2023-01-27T17:35:33.562Z,79.29
2023-01-27T17:38:10.138Z,79.02
2023-01-27T17:40:41.901Z,78.96
2023-01-27T17:43:32.112Z,79.23
2023-01-27T17:46:03.129Z,79.54
2023-01-27T17:48:38.414Z,79.29
2023-01-27T17:51:07.293Z,79.44
2023-01-27T17:53:39.079Z,79.54
2023-01-27T17:56:21.744Z,79.50
2023-01-27T17:58:55.156Z,79.06
2023-01-27T18:01:23.142Z,79.24
2023-01-27T18:03:55.362Z,79.45
2023-01-27T18:06:27.762Z,79.68
2023-01-27T18:08:58.826Z,79.29
2023-01-27T18:11:31.399Z,79.44
2023-01-27T18:14:07.917Z,79.40
2023-01-27T18:16:36.188Z,79.65
2023-01-27T18:19:24.983Z,79.67
2023-01-27T18:22:17.193Z,79.95
2023-01-27T18:25:00.962Z,80.03
2023-01-27T18:27:34.640Z,80.00
2023-01-27T18:30:24.051Z,80.04
2023-01-27T18:33:02.929Z,80.02
2023-01-27T18:35:35.073Z,80.08
2023-01-27T18:38:19.704Z,80.10
2023-01-27T18:40:49.518Z,80.03
2023-01-27T18:43:18.073Z,80.35
2023-01-27T18:45:48.407Z,80.21
2023-01-27T18:48:17.952Z,80.15
2023-01-27T18:50:47.533Z,80.44
2023-01-27T18:53:22.725Z,80.08
2023-01-27T18:55:54.956Z,79.96
2023-01-27T18:58:25.161Z,80.26
2023-01-27T19:00:55.421Z,80.73
2023-01-27T19:03:25.550Z,80.49
2023-01-27T19:05:57.588Z,80.36
2023-01-27T19:08:28.400Z,80.19
2023-01-27T19:10:57.081Z,80.26
2023-01-27T19:13:28.756Z,80.43
2023-01-27T19:15:59.987Z,80.41
2023-01-27T19:18:36.133Z,80.27
2023-01-27T19:21:07.401Z,80.52
2023-01-27T19:23:37.114Z,80.38
2023-01-27T19:26:10.062Z,80.64
2023-01-27T19:28:38.917Z,80.75
2023-01-27T19:31:07.826Z,80.49
2023-01-27T19:33:37.364Z,80.35
2023-01-27T19:36:29.344Z,80.43
2023-01-27T19:39:17.523Z,80.41
2023-01-27T19:41:46.250Z,80.58
2023-01-27T19:44:15.262Z,80.54
2023-01-27T19:46:43.429Z,80.85
2023-01-27T19:49:16.900Z,80.78
2023-01-27T19:51:45.104Z,80.86
2023-01-27T19:54:13.038Z,81.22
2023-01-27T19:56:40.894Z,81.22
2023-01-27T19:59:10.013Z,80.90
2023-01-27T20:01:37.829Z,81.04
2023-01-27T20:04:05.784Z,81.24
2023-01-27T20:06:34.456Z,81.11
2023-01-27T20:09:03.721Z,81.08
2023-01-27T20:11:43.162Z,81.14
2023-01-27T20:14:14.280Z,81.21
2023-01-27T20:16:43.065Z,81.55
2023-01-27T20:19:15.176Z,81.49
2023-01-27T20:21:45.517Z,81.38
2023-01-27T20:24:18.253Z,81.69
2023-01-27T20:26:46.427Z,81.71
2023-01-27T20:29:14.384Z,81.80
2023-01-27T20:31:42.707Z,81.67
2023-01-27T20:34:10.989Z,82.02
2023-01-27T20:36:38.824Z,81.95
2023-01-27T20:39:06.653Z,82.13
2023-01-27T20:41:34.547Z,82.28
2023-01-27T20:44:02.417Z,82.28
2023-01-27T20:46:30.893Z,82.22
2023-01-27T20:48:59.588Z,82.20
2023-01-27T20:51:27.420Z,82.25
2023-01-27T20:53:55.276Z,82.16
2023-01-27T20:56:24.212Z,81.95
2023-01-27T20:58:52.624Z,82.36
2023-01-27T21:01:23.080Z,81.90
2023-01-27T21:03:51.294Z,82.31
2023-01-27T21:06:20.235Z,82.36
2023-01-27T21:08:49.360Z,82.50
2023-01-27T21:11:20.193Z,82.35
2023-01-27T21:13:49.131Z,82.22
2023-01-27T21:16:17.444Z,81.99
2023-01-27T21:18:45.750Z,82.66
2023-01-27T21:21:27.276Z,82.64
2023-01-27T21:23:56.565Z,82.43
2023-01-27T21:26:24.802Z,82.49
2023-01-27T21:28:53.181Z,82.52
2023-01-27T21:31:24.513Z,82.54
2023-01-27T21:33:52.373Z,82.55
2023-01-27T21:36:20.295Z,82.52
2023-01-27T21:38:53.986Z,82.27
2023-01-27T21:41:42.312Z,82.11
2023-01-27T21:44:36.811Z,82.43
2023-01-27T21:47:06.518Z,82.59
2023-01-27T21:49:58.702Z,82.57
2023-01-27T21:52:39.374Z,82.38
2023-01-27T21:55:10.345Z,82.58
2023-01-27T21:57:38.241Z,82.87
2023-01-27T22:00:10.426Z,82.36
2023-01-27T22:02:42.434Z,82.64
2023-01-27T22:05:12.794Z,82.51
2023-01-27T22:07:41.855Z,82.82
2023-01-27T22:10:19.297Z,83.01
2023-01-27T22:12:49.393Z,82.73
2023-01-27T22:15:20.084Z,83.11
2023-01-27T22:17:48.152Z,83.08
2023-01-27T22:27:56.888Z,82.87
2023-01-27T22:30:24.838Z,82.68
2023-01-27T22:32:52.790Z,82.83
2023-01-27T22:35:20.859Z,82.67
2023-01-27T22:37:49.285Z,82.71
2023-01-27T22:40:18.075Z,82.76
2023-01-27T22:42:48.468Z,82.94
2023-01-27T22:45:17.250Z,83.18
2023-01-27T22:47:45.517Z,83.10
2023-01-27T22:50:14.121Z,83.11
2023-01-27T22:52:42.622Z,83.13
2023-01-27T22:55:12.312Z,83.07
2023-01-27T22:57:40.575Z,83.20
2023-01-27T23:00:09.976Z,83.27
2023-01-27T23:02:38.173Z,83.53
2023-01-27T23:05:07.061Z,83.20
2023-01-27T23:07:35.039Z,83.20
2023-01-27T23:10:03.085Z,83.22
2023-01-27T23:12:30.938Z,83.55
2023-01-27T23:15:01.883Z,83.47
2023-01-27T23:17:30.158Z,83.35
2023-01-27T23:19:58.130Z,83.19
2023-01-27T23:22:26.146Z,83.31
2023-01-27T23:24:54.228Z,83.23
2023-01-27T23:27:22.177Z,83.28
2023-01-27T23:29:50.141Z,83.45
2023-01-27T23:32:17.999Z,83.51
2023-01-27T23:34:45.911Z,83.35
2023-01-27T23:37:14.063Z,83.58
2023-01-27T23:39:46.076Z,83.65
2023-01-27T23:42:15.190Z,83.79
2023-01-27T23:44:43.154Z,83.27
2023-01-27T23:47:12.644Z,83.60
2023-01-27T23:49:41.022Z,83.86
2023-01-27T23:52:08.967Z,83.64
2023-01-27T23:54:37.501Z,83.94
2023-01-27T23:57:05.549Z,83.89
2023-01-27T23:59:33.572Z,84.25
